createdAt,value
2022-09-27T00:05:18.515Z,10.3
2022-09-27T00:11:01.210Z,10.2
2022-09-27T00:16:31.904Z,10.2
2022-09-27T00:22:19.562Z,10.2
2022-09-27T00:27:31.561Z,10.1
2022-09-27T00:33:19.136Z,10.2
2022-09-27T00:38:48.474Z,10.3
2022-09-27T00:44:28.221Z,10.3
2022-09-27T00:50:14.445Z,10.3
2022-09-27T00:55:48.292Z,10.2
2022-09-27T01:01:01.414Z,10.2
2022-09-27T01:06:40.119Z,10.1
2022-09-27T01:12:07.734Z,10.1
2022-09-27T01:17:59.750Z,10.3
2022-09-27T01:23:27.057Z,10.3
2022-09-27T01:28:48.372Z,10.3
2022-09-27T01:34:43.279Z,10.3
2022-09-27T01:39:56.679Z,10.2
2022-09-27T01:45:44.564Z,10.2
2022-09-27T01:51:07.568Z,10.2
2022-09-27T01:56:55.598Z,10.1
2022-09-27T02:02:34.897Z,10
2022-09-27T02:07:48.081Z,9.8
2022-09-27T02:13:23.960Z,9.8
2022-09-27T02:18:59.437Z,9.8
2022-09-27T02:24:41.584Z,9.8
2022-09-27T02:30:10.984Z,9.7
2022-09-27T02:35:46.397Z,9.8
2022-09-27T02:41:32.775Z,9.8
2022-09-27T02:46:45.241Z,9.8
2022-09-27T02:52:41.325Z,9.8
2022-09-27T02:57:50.186Z,9.9
2022-09-27T03:03:32.051Z,9.9
2022-09-27T03:09:11.274Z,9.9
2022-09-27T03:14:32.554Z,9.9
2022-09-27T03:20:29.211Z,9.9
2022-09-27T03:26:10.778Z,10
2022-09-27T03:48:03.334Z,10
2022-09-27T03:53:33.958Z,10.4
2022-09-27T04:04:56.078Z,10.5
2022-09-27T04:54:59.138Z,9.7
2022-09-27T05:23:18.069Z,9.9
2022-09-27T05:50:53.199Z,9.8
2022-09-27T05:56:37.073Z,10
2022-09-27T06:18:50.608Z,10
2022-09-27T06:24:11.003Z,9.9
2022-09-27T06:35:27.396Z,10
2022-09-27T06:40:58.701Z,10
2022-09-27T06:46:25.127Z,10.2
2022-09-27T06:52:21.712Z,9.7
2022-09-27T06:57:40.170Z,10.1
2022-09-27T07:03:18.007Z,10.2
2022-09-27T07:08:52.544Z,10.5
2022-09-27T07:14:19.503Z,10.6
2022-09-27T07:19:51.278Z,10.5
2022-09-27T07:25:23.843Z,10.7
2022-09-27T07:31:17.473Z,11.2
2022-09-27T07:36:38.392Z,11.3
2022-09-27T07:42:28.589Z,11.3
2022-09-27T07:47:59.107Z,11.5
2022-09-27T07:53:20.292Z,11.6
2022-09-27T08:10:28.092Z,11.5
2022-09-27T08:15:58.317Z,11.4
2022-09-27T08:26:56.909Z,11.4
2022-09-27T08:32:32.079Z,11.6
2022-09-27T08:38:10.822Z,11.7
2022-09-27T08:43:30.044Z,11.8
2022-09-27T08:49:25.341Z,11.7
2022-09-27T08:54:40.096Z,11.6
2022-09-27T09:00:32.497Z,11.1
2022-09-27T09:06:16.740Z,10.9
2022-09-27T09:17:00.653Z,10.9
2022-09-27T09:28:11.258Z,10.8
2022-09-27T09:34:09.335Z,11
2022-09-27T09:45:10.514Z,11.3
2022-09-27T09:50:50.835Z,11.3
2022-09-27T09:56:23.702Z,11.6
2022-09-27T10:01:49.547Z,11.7
2022-09-27T10:07:15.713Z,11.8
2022-09-27T10:13:15.752Z,12.2
2022-09-27T10:18:29.344Z,12.5
2022-09-27T10:35:20.232Z,12.6
2022-09-27T10:40:54.217Z,12.2
2022-09-27T10:46:49.571Z,12
2022-09-27T11:25:55.791Z,11.8
2022-09-27T11:31:19.908Z,12.3
2022-09-27T11:36:52.496Z,12.2
2022-09-27T11:42:24.261Z,12.2
2022-09-27T11:48:08.751Z,12.1
2022-09-27T11:53:35.013Z,12
2022-09-27T11:59:02.033Z,11.9
2022-09-27T12:04:47.037Z,11.8
2022-09-27T12:10:30.813Z,12
2022-09-27T12:16:06.750Z,12.1
2022-09-27T12:21:18.816Z,12.3
2022-09-27T12:26:54.996Z,12
2022-09-27T12:32:27.918Z,12.2
2022-09-27T12:43:45.848Z,12.1
2022-09-27T12:49:22.212Z,12
2022-09-27T12:55:05.825Z,11.9
2022-09-27T13:00:38.942Z,11.8
2022-09-27T13:05:59.911Z,11.7
2022-09-27T13:11:48.482Z,11.7
2022-09-27T13:22:48.806Z,10.9
2022-09-27T13:33:54.493Z,11.3
2022-09-27T13:39:53.525Z,11.5
2022-09-27T13:45:01.047Z,11.5
2022-09-27T13:50:42.136Z,11.9
2022-09-27T13:56:32.472Z,12.1
2022-09-27T14:07:40.429Z,12
2022-09-27T14:29:57.103Z,11
2022-09-27T14:40:56.173Z,11
2022-09-27T14:57:58.172Z,11.2
2022-09-27T15:03:21.938Z,11.4
2022-09-27T15:08:45.831Z,11.3
2022-09-27T15:14:22.937Z,11.2
2022-09-27T15:20:09.098Z,11.2
2022-09-27T15:25:26.258Z,11.3
2022-09-27T15:36:58.306Z,10.9
2022-09-27T15:47:47.398Z,10.6
2022-09-27T15:53:33.390Z,10.6
2022-09-27T15:59:03.698Z,10.7
2022-09-27T16:32:27.494Z,10.1
2022-09-27T16:38:08.483Z,9.9
2022-09-27T16:43:38.930Z,9.9
2022-09-27T16:49:23.173Z,9.8
2022-09-27T16:55:09.681Z,9.8
2022-09-27T17:00:20.348Z,9.7
2022-09-27T17:06:13.837Z,9.7
2022-09-27T17:11:31.353Z,9.5
2022-09-27T17:17:20.478Z,9.6
2022-09-27T17:22:42.520Z,9.6
2022-09-27T17:28:39.177Z,9.6
2022-09-27T17:34:06.020Z,9.7
2022-09-27T17:39:45.809Z,9.7
2022-09-27T17:45:16.542Z,9.8
2022-09-27T17:50:44.551Z,9.9
2022-09-27T17:56:23.585Z,10
2022-09-27T18:01:42.608Z,9.9
2022-09-27T18:07:25.601Z,9.9
2022-09-27T18:12:48.456Z,9.9
2022-09-27T18:18:40.375Z,9.8
2022-09-27T18:23:51.579Z,9.8
2022-09-27T18:29:41.305Z,9.8
2022-09-27T18:35:04.090Z,9.7
2022-09-27T18:40:55.445Z,9.8
2022-09-27T18:46:37.226Z,9.8
2022-09-27T18:51:55.847Z,9.8
2022-09-27T18:57:33.690Z,9.8
2022-09-27T19:02:50.377Z,9.8
2022-09-27T19:08:35.024Z,9.8
2022-09-27T19:19:44.509Z,9.7
2022-09-27T19:25:12.616Z,9.6
2022-09-27T19:30:58.265Z,9.6
2022-09-27T19:36:23.275Z,9.6
2022-09-27T19:42:11.472Z,9.6
2022-09-27T19:47:40.376Z,9.6
2022-09-27T19:52:59.413Z,9.6
2022-09-27T19:58:37.701Z,9.6
2022-09-27T20:04:28.246Z,9.5
2022-09-27T20:09:37.067Z,9.6
2022-09-27T20:15:34.261Z,9.5
2022-09-27T20:21:11.577Z,9.5
2022-09-27T20:26:43.808Z,9.6
2022-09-27T20:32:27.103Z,9.6
2022-09-27T20:37:40.038Z,9.6
2022-09-27T20:43:07.382Z,9.7
2022-09-27T20:48:44.287Z,9.7
2022-09-27T20:54:25.265Z,9.7
2022-09-27T21:00:06.988Z,9.7
2022-09-27T21:05:39.314Z,9.7
2022-09-27T21:11:08.445Z,9.8
2022-09-27T21:16:27.931Z,9.8
2022-09-27T21:22:00.620Z,9.8
2022-09-27T21:27:42.079Z,10
2022-09-27T21:33:16.290Z,10
2022-09-27T21:38:59.569Z,10
2022-09-27T21:44:26.734Z,10
2022-09-27T21:50:13.201Z,10
2022-09-27T21:55:30.669Z,10
2022-09-27T22:01:03.662Z,10
2022-09-27T22:06:50.261Z,10
2022-09-27T22:12:09.700Z,10
2022-09-27T22:17:59.042Z,10
2022-09-27T22:23:16.076Z,10.1
2022-09-27T22:28:48.659Z,10
2022-09-27T22:34:45.345Z,10.1
2022-09-27T22:40:03.981Z,10.2
2022-09-27T22:45:52.389Z,10.1
2022-09-27T22:51:19.725Z,10
2022-09-27T22:56:53.962Z,9.9
2022-09-27T23:02:33.566Z,9.8
2022-09-27T23:07:51.499Z,9.8
2022-09-27T23:13:17.219Z,9.8
2022-09-27T23:19:00.614Z,9.8
2022-09-27T23:24:40.725Z,9.8
2022-09-27T23:30:12.769Z,9.8
2022-09-27T23:35:30.640Z,9.8
2022-09-27T23:41:25.875Z,9.8
2022-09-27T23:46:58.714Z,9.8
2022-09-27T23:52:27.900Z,9.7
2022-09-27T23:58:08.972Z,9.7
